BAW734 EGLL-LSZH
Flight info
| Callsign | BAW734 |
|---|---|
| Flight time | 1h 25m |
| Altitude | 29000 |
| Route | DCT DET L6 DVR UL9 KONAN UL607 KOK M150 KOMOB DCT SUTAL DCT GTQ DCT BAMEV DCT BLM DCT |
| Aircraft | A319/M-SDE3FGIJ1KRWXY/LB1 |
Departure
| Time | 2026-05-04 10:54 |
|---|---|
| Airport | London Heathrow Airport (EGLL) |
Arrival
| Time | 2026-05-04 12:19 |
|---|---|
| Airport | Zürich Airport (LSZH) |
| Time | Latitude | Longitude | Altitude | Speed | Heading |
|---|---|---|---|---|---|
| 2026-05-04 10:04 | 51.46826 | -0.48680 | 86 ft | 0 kts | 180° |
| 2026-05-04 10:41 | 51.46837 | -0.48680 | 88 ft | 3 kts | 180° |
| 2026-05-04 10:42 | 51.46855 | -0.48679 | 88 ft | 3 kts | 163° |
| 2026-05-04 10:42 | 51.46867 | -0.48694 | 86 ft | 1 kts | 93° |
| 2026-05-04 10:42 | 51.46867 | -0.48695 | 90 ft | 0 kts | 93° |
| 2026-05-04 10:45 | 51.46867 | -0.48693 | 86 ft | 1 kts | 93° |
| 2026-05-04 10:45 | 51.46867 | -0.48655 | 88 ft | 6 kts | 87° |
| 2026-05-04 10:46 | 51.46875 | -0.48570 | 89 ft | 10 kts | 85° |
| 2026-05-04 10:46 | 51.46841 | -0.48472 | 86 ft | 12 kts | 168° |
| 2026-05-04 10:46 | 51.46743 | -0.48468 | 86 ft | 15 kts | 181° |
| 2026-05-04 10:46 | 51.46654 | -0.48395 | 86 ft | 17 kts | 101° |
| 2026-05-04 10:47 | 51.46651 | -0.48192 | 86 ft | 20 kts | 89° |
| 2026-05-04 10:47 | 51.46653 | -0.47959 | 88 ft | 22 kts | 89° |
| 2026-05-04 10:47 | 51.46654 | -0.47698 | 86 ft | 25 kts | 90° |
| 2026-05-04 10:47 | 51.46653 | -0.47422 | 90 ft | 25 kts | 90° |
| 2026-05-04 10:49 | 51.46662 | -0.45597 | 89 ft | 22 kts | 90° |
| 2026-05-04 10:49 | 51.46661 | -0.45341 | 86 ft | 24 kts | 90° |
| 2026-05-04 10:50 | 51.46660 | -0.45056 | 87 ft | 27 kts | 90° |
| 2026-05-04 10:51 | 51.46630 | -0.44054 | 89 ft | 3 kts | 164° |
| 2026-05-04 10:52 | 51.46593 | -0.44053 | 88 ft | 7 kts | 180° |
| 2026-05-04 10:52 | 51.46535 | -0.44053 | 87 ft | 10 kts | 181° |
| 2026-05-04 10:52 | 51.46495 | -0.44136 | 88 ft | 11 kts | 270° |
| 2026-05-04 10:54 | 51.46466 | -0.49830 | 1022 ft | 163 kts | 270° |
| 2026-05-04 10:54 | 51.46427 | -0.51671 | 1569 ft | 172 kts | 261° |
| 2026-05-04 10:56 | 51.38545 | -0.47426 | 5779 ft | 274 kts | 133° |
| 2026-05-04 10:56 | 51.37213 | -0.45259 | 5945 ft | 273 kts | 135° |
| 2026-05-04 10:56 | 51.35851 | -0.43137 | 5994 ft | 273 kts | 136° |
| 2026-05-04 10:57 | 51.34478 | -0.41036 | 5996 ft | 273 kts | 136° |
| 2026-05-04 10:57 | 51.33104 | -0.38941 | 5998 ft | 272 kts | 136° |
| 2026-05-04 10:57 | 51.31824 | -0.36721 | 5994 ft | 272 kts | 120° |
| 2026-05-04 10:57 | 51.31273 | -0.33851 | 6001 ft | 272 kts | 95° |
| 2026-05-04 10:58 | 51.31246 | -0.30833 | 5998 ft | 272 kts | 87° |
| 2026-05-04 10:58 | 51.31381 | -0.27784 | 5996 ft | 272 kts | 85° |
| 2026-05-04 10:58 | 51.31519 | -0.24790 | 5997 ft | 272 kts | 86° |
| 2026-05-04 10:58 | 51.31613 | -0.21762 | 5998 ft | 272 kts | 88° |
| 2026-05-04 10:59 | 51.31654 | -0.18781 | 5999 ft | 272 kts | 89° |
| 2026-05-04 10:59 | 51.31657 | -0.15750 | 5996 ft | 272 kts | 90° |
| 2026-05-04 10:59 | 51.31638 | -0.12722 | 6004 ft | 272 kts | 91° |
| 2026-05-04 10:59 | 51.31606 | -0.09694 | 6004 ft | 272 kts | 91° |
| 2026-05-04 11:00 | 51.31563 | -0.06666 | 6006 ft | 273 kts | 91° |
| 2026-05-04 11:01 | 51.31226 | 0.14534 | 6008 ft | 274 kts | 91° |
| 2026-05-04 11:02 | 51.31176 | 0.17578 | 6009 ft | 274 kts | 91° |
| 2026-05-04 11:02 | 51.31126 | 0.20618 | 6005 ft | 274 kts | 91° |
| 2026-05-04 11:05 | 51.29716 | 0.63516 | 10177 ft | 293 kts | 107° |
| 2026-05-04 11:06 | 51.29115 | 0.66762 | 10521 ft | 317 kts | 107° |
| 2026-05-04 11:06 | 51.28474 | 0.70247 | 10865 ft | 336 kts | 107° |
| 2026-05-04 11:06 | 51.27808 | 0.73879 | 11504 ft | 343 kts | 107° |
| 2026-05-04 11:06 | 51.27135 | 0.77558 | 12228 ft | 348 kts | 107° |
| 2026-05-04 11:08 | 51.22183 | 1.04364 | 16939 ft | 373 kts | 107° |
| 2026-05-04 11:10 | 51.16810 | 1.33021 | 21055 ft | 398 kts | 108° |
| 2026-05-04 11:12 | 51.14883 | 1.64684 | 24397 ft | 423 kts | 96° |
| 2026-05-04 11:12 | 51.14646 | 1.69437 | 24831 ft | 426 kts | 96° |
| 2026-05-04 11:12 | 51.14406 | 1.74154 | 25258 ft | 429 kts | 96° |
| 2026-05-04 11:12 | 51.14167 | 1.78831 | 25673 ft | 431 kts | 96° |
| 2026-05-04 11:13 | 51.13922 | 1.83611 | 26080 ft | 434 kts | 96° |
| 2026-05-04 11:13 | 51.13676 | 1.88413 | 26492 ft | 436 kts | 97° |
| 2026-05-04 11:13 | 51.13426 | 1.93246 | 26890 ft | 439 kts | 97° |
| 2026-05-04 11:13 | 51.13174 | 1.98098 | 27290 ft | 441 kts | 97° |
| 2026-05-04 11:14 | 51.12919 | 2.02980 | 27676 ft | 444 kts | 97° |
| 2026-05-04 11:14 | 51.12661 | 2.07893 | 28042 ft | 447 kts | 97° |
| 2026-05-04 11:14 | 51.12399 | 2.12833 | 28419 ft | 449 kts | 97° |
| 2026-05-04 11:16 | 51.10536 | 2.46882 | 29029 ft | 439 kts | 97° |
| 2026-05-04 11:16 | 51.09962 | 2.56706 | 29028 ft | 455 kts | 98° |
| 2026-05-04 11:17 | 51.08796 | 2.66559 | 29027 ft | 447 kts | 112° |
| 2026-05-04 11:19 | 50.97430 | 3.01329 | 29022 ft | 444 kts | 121° |
| 2026-05-04 11:19 | 50.94520 | 3.09964 | 29020 ft | 444 kts | 121° |
| 2026-05-04 11:20 | 50.91603 | 3.18602 | 29020 ft | 444 kts | 121° |
| 2026-05-04 11:20 | 50.88689 | 3.27215 | 29021 ft | 444 kts | 121° |
| 2026-05-04 11:22 | 50.76990 | 3.61489 | 29013 ft | 443 kts | 121° |
| 2026-05-04 11:23 | 50.74048 | 3.70018 | 29011 ft | 442 kts | 122° |
| 2026-05-04 11:25 | 50.63736 | 3.99755 | 29009 ft | 441 kts | 122° |
| 2026-05-04 11:25 | 50.60776 | 4.08217 | 29008 ft | 441 kts | 122° |
| 2026-05-04 11:27 | 50.47386 | 4.46181 | 29013 ft | 442 kts | 122° |
| 2026-05-04 11:28 | 50.44391 | 4.54602 | 29014 ft | 441 kts | 122° |
| 2026-05-04 11:28 | 50.41892 | 4.61577 | 29011 ft | 441 kts | 122° |
| 2026-05-04 11:29 | 50.38878 | 4.69971 | 29010 ft | 442 kts | 122° |
| 2026-05-04 11:29 | 50.35863 | 4.78388 | 29010 ft | 443 kts | 122° |
| 2026-05-04 11:33 | 50.14418 | 5.36854 | 29007 ft | 442 kts | 130° |
| 2026-05-04 11:33 | 50.10226 | 5.43756 | 29010 ft | 438 kts | 139° |
| 2026-05-04 11:34 | 50.05866 | 5.50393 | 29007 ft | 439 kts | 139° |
| 2026-05-04 11:34 | 50.01505 | 5.57038 | 29004 ft | 439 kts | 138° |
| 2026-05-04 11:35 | 49.97179 | 5.63643 | 29007 ft | 439 kts | 138° |
| 2026-05-04 11:35 | 49.92816 | 5.70265 | 29002 ft | 439 kts | 138° |
| 2026-05-04 11:36 | 49.88447 | 5.76866 | 29001 ft | 439 kts | 138° |
| 2026-05-04 11:36 | 49.84073 | 5.83459 | 29003 ft | 439 kts | 139° |
| 2026-05-04 11:37 | 49.79691 | 5.90040 | 29004 ft | 439 kts | 139° |
| 2026-05-04 11:37 | 49.75310 | 5.96624 | 29007 ft | 439 kts | 139° |
| 2026-05-04 11:38 | 49.70920 | 6.03198 | 29010 ft | 439 kts | 139° |
| 2026-05-04 11:38 | 49.66520 | 6.09753 | 29013 ft | 440 kts | 139° |
| 2026-05-04 11:39 | 49.62119 | 6.16302 | 29013 ft | 440 kts | 139° |
| 2026-05-04 11:41 | 49.46526 | 6.38824 | 29012 ft | 436 kts | 149° |
| 2026-05-04 11:41 | 49.41129 | 6.42927 | 29013 ft | 433 kts | 159° |
| 2026-05-04 11:42 | 49.35621 | 6.46666 | 29015 ft | 433 kts | 158° |
| 2026-05-04 11:42 | 49.30114 | 6.50418 | 29012 ft | 433 kts | 158° |
| 2026-05-04 11:43 | 49.24606 | 6.54161 | 29010 ft | 433 kts | 158° |
| 2026-05-04 11:43 | 49.19134 | 6.57860 | 29011 ft | 433 kts | 158° |
| 2026-05-04 11:44 | 49.13627 | 6.61571 | 29008 ft | 432 kts | 158° |
| 2026-05-04 11:44 | 49.08118 | 6.65276 | 29011 ft | 433 kts | 158° |
| 2026-05-04 11:45 | 49.02604 | 6.68976 | 29011 ft | 433 kts | 158° |
| 2026-05-04 11:45 | 48.97124 | 6.72612 | 29010 ft | 433 kts | 159° |
| 2026-05-04 11:46 | 48.91573 | 6.75968 | 29011 ft | 432 kts | 161° |
| 2026-05-04 11:46 | 48.85947 | 6.79199 | 29010 ft | 432 kts | 161° |
| 2026-05-04 11:47 | 48.80330 | 6.82464 | 29011 ft | 432 kts | 161° |
| 2026-05-04 11:47 | 48.75918 | 6.85067 | 29011 ft | 433 kts | 161° |
| 2026-05-04 11:48 | 48.70314 | 6.88385 | 29008 ft | 432 kts | 161° |
| 2026-05-04 11:48 | 48.64742 | 6.91664 | 29008 ft | 432 kts | 161° |
| 2026-05-04 11:49 | 48.59089 | 6.94964 | 29009 ft | 433 kts | 161° |
| 2026-05-04 11:49 | 48.53480 | 6.98244 | 29007 ft | 433 kts | 161° |
| 2026-05-04 11:50 | 48.47863 | 7.01531 | 29008 ft | 433 kts | 161° |
| 2026-05-04 11:50 | 48.42241 | 7.04812 | 29007 ft | 433 kts | 161° |
| 2026-05-04 11:51 | 48.36626 | 7.08071 | 29004 ft | 433 kts | 161° |
| 2026-05-04 11:51 | 48.31006 | 7.11335 | 29001 ft | 433 kts | 161° |
| 2026-05-04 11:52 | 48.25416 | 7.14556 | 29002 ft | 433 kts | 161° |
| 2026-05-04 11:52 | 48.22599 | 7.16175 | 28897 ft | 434 kts | 161° |
| 2026-05-04 11:52 | 48.19794 | 7.17787 | 28567 ft | 426 kts | 161° |
| 2026-05-04 11:52 | 48.17057 | 7.19363 | 28318 ft | 418 kts | 161° |
| 2026-05-04 11:53 | 48.14353 | 7.20920 | 28065 ft | 415 kts | 161° |
| 2026-05-04 11:53 | 48.11666 | 7.22464 | 27814 ft | 413 kts | 161° |
| 2026-05-04 11:53 | 48.08980 | 7.24007 | 27563 ft | 412 kts | 161° |
| 2026-05-04 11:53 | 48.06311 | 7.25537 | 27315 ft | 410 kts | 161° |
| 2026-05-04 11:55 | 47.88000 | 7.35973 | 24621 ft | 392 kts | 160° |
| 2026-05-04 11:55 | 47.85464 | 7.37414 | 24172 ft | 388 kts | 160° |
| 2026-05-04 11:56 | 47.82980 | 7.38823 | 23730 ft | 385 kts | 160° |
| 2026-05-04 11:56 | 47.80485 | 7.40236 | 23221 ft | 384 kts | 160° |
| 2026-05-04 11:56 | 47.77998 | 7.41644 | 22692 ft | 383 kts | 160° |
| 2026-05-04 11:56 | 47.75513 | 7.43050 | 22201 ft | 380 kts | 160° |
| 2026-05-04 11:57 | 47.73050 | 7.44442 | 21702 ft | 377 kts | 160° |
| 2026-05-04 11:57 | 47.70609 | 7.45820 | 21204 ft | 374 kts | 160° |
| 2026-05-04 11:57 | 47.68178 | 7.47197 | 20694 ft | 372 kts | 160° |
| 2026-05-04 11:57 | 47.65897 | 7.48969 | 20192 ft | 371 kts | 147° |
| 2026-05-04 11:58 | 47.63944 | 7.51460 | 19688 ft | 371 kts | 134° |
| 2026-05-04 11:58 | 47.62423 | 7.54538 | 19197 ft | 370 kts | 121° |
| 2026-05-04 11:58 | 47.61401 | 7.58019 | 18680 ft | 369 kts | 110° |
| 2026-05-04 11:58 | 47.60568 | 7.61605 | 18151 ft | 366 kts | 110° |
| 2026-05-04 11:59 | 47.59735 | 7.65160 | 17635 ft | 364 kts | 110° |
| 2026-05-04 11:59 | 47.58905 | 7.68691 | 17137 ft | 361 kts | 110° |
| 2026-05-04 11:59 | 47.58084 | 7.72188 | 16642 ft | 358 kts | 110° |
| 2026-05-04 11:59 | 47.57268 | 7.75653 | 16143 ft | 355 kts | 110° |
| 2026-05-04 12:00 | 47.56458 | 7.79082 | 15649 ft | 352 kts | 111° |
| 2026-05-04 12:00 | 47.55655 | 7.82490 | 15153 ft | 348 kts | 110° |
| 2026-05-04 12:00 | 47.54861 | 7.85858 | 14670 ft | 346 kts | 111° |
| 2026-05-04 12:00 | 47.54069 | 7.89206 | 14199 ft | 343 kts | 111° |
| 2026-05-04 12:01 | 47.53283 | 7.92517 | 13715 ft | 340 kts | 111° |
| 2026-05-04 12:01 | 47.52517 | 7.95811 | 13244 ft | 338 kts | 108° |
| 2026-05-04 12:02 | 47.58512 | 8.12631 | 10475 ft | 331 kts | 36° |
| 2026-05-04 12:03 | 47.60365 | 8.14612 | 10049 ft | 328 kts | 36° |
| 2026-05-04 12:03 | 47.62186 | 8.16563 | 9849 ft | 317 kts | 36° |
| 2026-05-04 12:03 | 47.63936 | 8.18444 | 9720 ft | 305 kts | 36° |
| 2026-05-04 12:03 | 47.65624 | 8.20260 | 9588 ft | 295 kts | 36° |
| 2026-05-04 12:04 | 47.67263 | 8.22026 | 9354 ft | 289 kts | 36° |
| 2026-05-04 12:04 | 47.68885 | 8.23773 | 9054 ft | 286 kts | 36° |
| 2026-05-04 12:04 | 47.70489 | 8.25505 | 8908 ft | 285 kts | 36° |
| 2026-05-04 12:04 | 47.72093 | 8.27237 | 8785 ft | 285 kts | 36° |
| 2026-05-04 12:05 | 47.73692 | 8.28965 | 8662 ft | 284 kts | 36° |
| 2026-05-04 12:05 | 47.75286 | 8.30700 | 8538 ft | 283 kts | 36° |
| 2026-05-04 12:05 | 47.76873 | 8.32425 | 8422 ft | 283 kts | 36° |
| 2026-05-04 12:05 | 47.78466 | 8.34151 | 8295 ft | 283 kts | 36° |
| 2026-05-04 12:06 | 47.80053 | 8.35868 | 8168 ft | 282 kts | 36° |
| 2026-05-04 12:06 | 47.81639 | 8.37584 | 8041 ft | 281 kts | 36° |
| 2026-05-04 12:06 | 47.83220 | 8.39295 | 7926 ft | 281 kts | 36° |
| 2026-05-04 12:06 | 47.84732 | 8.41132 | 7803 ft | 281 kts | 49° |
| 2026-05-04 12:07 | 47.85712 | 8.43579 | 7674 ft | 272 kts | 72° |
| 2026-05-04 12:07 | 47.85971 | 8.46266 | 7552 ft | 263 kts | 94° |
| 2026-05-04 12:07 | 47.85540 | 8.48852 | 7432 ft | 255 kts | 116° |
| 2026-05-04 12:07 | 47.84532 | 8.50955 | 7310 ft | 247 kts | 136° |
| 2026-05-04 12:08 | 47.83130 | 8.52343 | 7183 ft | 240 kts | 157° |
| 2026-05-04 12:08 | 47.81538 | 8.52907 | 7055 ft | 233 kts | 177° |
| 2026-05-04 12:08 | 47.79954 | 8.52646 | 6938 ft | 228 kts | 197° |
| 2026-05-04 12:08 | 47.78560 | 8.51658 | 6812 ft | 218 kts | 216° |
| 2026-05-04 12:09 | 47.77493 | 8.50144 | 6684 ft | 209 kts | 233° |
| 2026-05-04 12:09 | 47.76800 | 8.48271 | 6557 ft | 206 kts | 251° |
| 2026-05-04 12:09 | 47.76514 | 8.46270 | 6491 ft | 192 kts | 263° |
| 2026-05-04 12:09 | 47.76340 | 8.44360 | 6356 ft | 182 kts | 262° |
| 2026-05-04 12:10 | 47.76170 | 8.42539 | 6236 ft | 173 kts | 262° |
| 2026-05-04 12:10 | 47.76007 | 8.40813 | 6094 ft | 164 kts | 262° |
| 2026-05-04 12:10 | 47.75849 | 8.39150 | 6005 ft | 169 kts | 261° |
| 2026-05-04 12:10 | 47.75538 | 8.37402 | 5923 ft | 176 kts | 250° |
| 2026-05-04 12:11 | 47.75015 | 8.35735 | 6003 ft | 180 kts | 240° |
| 2026-05-04 12:11 | 47.74302 | 8.34211 | 5999 ft | 179 kts | 230° |
| 2026-05-04 12:11 | 47.73454 | 8.32845 | 6016 ft | 180 kts | 227° |
| 2026-05-04 12:11 | 47.72592 | 8.31476 | 5829 ft | 186 kts | 227° |
| 2026-05-04 12:12 | 47.71717 | 8.30084 | 5680 ft | 176 kts | 227° |
| 2026-05-04 12:12 | 47.70920 | 8.28814 | 5759 ft | 168 kts | 227° |
| 2026-05-04 12:12 | 47.69963 | 8.27763 | 5838 ft | 177 kts | 204° |
| 2026-05-04 12:12 | 47.68758 | 8.27303 | 5918 ft | 178 kts | 182° |
| 2026-05-04 12:13 | 47.67550 | 8.27546 | 5868 ft | 179 kts | 160° |
| 2026-05-04 12:14 | 47.61170 | 8.35830 | 4852 ft | 174 kts | 136° |
| 2026-05-04 12:15 | 47.60295 | 8.37032 | 4614 ft | 173 kts | 136° |
| 2026-05-04 12:15 | 47.59415 | 8.38243 | 4385 ft | 172 kts | 136° |
| 2026-05-04 12:15 | 47.58538 | 8.39450 | 4158 ft | 172 kts | 136° |
| 2026-05-04 12:15 | 47.57663 | 8.40650 | 3933 ft | 172 kts | 136° |
| 2026-05-04 12:16 | 47.56794 | 8.41844 | 3701 ft | 168 kts | 136° |
| 2026-05-04 12:16 | 47.55958 | 8.42992 | 3478 ft | 161 kts | 136° |
| 2026-05-04 12:16 | 47.55155 | 8.44096 | 3270 ft | 154 kts | 137° |
| 2026-05-04 12:16 | 47.54383 | 8.45153 | 3078 ft | 148 kts | 136° |
| 2026-05-04 12:17 | 47.53630 | 8.46185 | 2878 ft | 147 kts | 136° |
| 2026-05-04 12:17 | 47.52884 | 8.47207 | 2686 ft | 146 kts | 136° |
| 2026-05-04 12:17 | 47.52142 | 8.48223 | 2486 ft | 145 kts | 136° |
| 2026-05-04 12:17 | 47.51400 | 8.49239 | 2293 ft | 145 kts | 136° |
| 2026-05-04 12:18 | 47.50663 | 8.50247 | 2106 ft | 144 kts | 136° |
| 2026-05-04 12:18 | 47.49929 | 8.51252 | 1898 ft | 144 kts | 136° |
| 2026-05-04 12:18 | 47.49195 | 8.52251 | 1727 ft | 143 kts | 137° |
| 2026-05-04 12:18 | 47.48709 | 8.52904 | 1590 ft | 143 kts | 136° |
| 2026-05-04 12:19 | 47.47990 | 8.53909 | 1425 ft | 141 kts | 136° |
| 2026-05-04 12:19 | 47.47297 | 8.54854 | 1389 ft | 131 kts | 137° |
| 2026-05-04 12:19 | 47.46715 | 8.55642 | 1398 ft | 68 kts | 138° |
| 2026-05-04 12:19 | 47.46436 | 8.55931 | 1398 ft | 18 kts | 163° |
| 2026-05-04 12:20 | 47.46339 | 8.55965 | 1406 ft | 3 kts | 166° |
| 2026-05-04 12:20 | 47.46335 | 8.55966 | 1404 ft | 0 kts | 165° |
| 2026-05-04 12:20 | 47.46331 | 8.55968 | 1401 ft | 2 kts | 165° |
| 2026-05-04 12:20 | 47.46297 | 8.55981 | 1404 ft | 8 kts | 166° |
| 2026-05-04 12:21 | 47.46239 | 8.56001 | 1410 ft | 8 kts | 171° |
| 2026-05-04 12:21 | 47.46178 | 8.56001 | 1406 ft | 9 kts | 184° |
| 2026-05-04 12:21 | 47.46111 | 8.55989 | 1411 ft | 10 kts | 187° |
| 2026-05-04 12:21 | 47.46033 | 8.55974 | 1411 ft | 13 kts | 187° |
| 2026-05-04 12:22 | 47.45935 | 8.55951 | 1408 ft | 15 kts | 196° |
| 2026-05-04 12:22 | 47.45861 | 8.55913 | 1412 ft | 9 kts | 199° |
| 2026-05-04 12:22 | 47.45796 | 8.55879 | 1413 ft | 11 kts | 198° |
| 2026-05-04 12:22 | 47.45715 | 8.55860 | 1411 ft | 11 kts | 186° |
| 2026-05-04 12:23 | 47.45658 | 8.55852 | 1410 ft | 9 kts | 185° |
| 2026-05-04 12:23 | 47.45595 | 8.55845 | 1412 ft | 10 kts | 184° |
| 2026-05-04 12:23 | 47.45518 | 8.55852 | 1410 ft | 12 kts | 153° |
| 2026-05-04 12:23 | 47.45451 | 8.55876 | 1410 ft | 8 kts | 183° |
| 2026-05-04 12:24 | 47.45419 | 8.55873 | 1411 ft | 5 kts | 185° |
| 2026-05-04 12:24 | 47.45415 | 8.55872 | 1411 ft | 0 kts | 185° |